sensor_id;sensor_type;location;lat;lon;timestamp;pressure;altitude;pressure_sealevel;temperature;humidity
21520;BME280;10921;53.614;9.882;2023-05-20T00:00:46;102532.78;;;11.47;55.98
21520;BME280;10921;53.614;9.882;2023-05-20T00:03:16;102546.41;;;11.44;56.18
21520;BME280;10921;53.614;9.882;2023-05-20T00:05:43;102539.75;;;11.37;56.50
21520;BME280;10921;53.614;9.882;2023-05-20T00:08:09;102517.81;;;11.19;56.08
21520;BME280;10921;53.614;9.882;2023-05-20T00:10:37;102538.47;;;11.30;56.55
21520;BME280;10921;53.614;9.882;2023-05-20T00:13:03;102541.75;;;11.34;56.25
21520;BME280;10921;53.614;9.882;2023-05-20T00:15:33;102544.88;;;11.27;56.82
21520;BME280;10921;53.614;9.882;2023-05-20T00:18:01;102542.31;;;11.26;56.79
21520;BME280;10921;53.614;9.882;2023-05-20T00:20:28;102530.84;;;11.11;56.50
21520;BME280;10921;53.614;9.882;2023-05-20T00:22:54;102546.25;;;11.20;56.59
21520;BME280;10921;53.614;9.882;2023-05-20T00:25:23;102536.94;;;11.13;56.33
21520;BME280;10921;53.614;9.882;2023-05-20T00:27:50;102536.59;;;11.18;56.56
21520;BME280;10921;53.614;9.882;2023-05-20T00:30:17;102538.97;;;11.22;57.00
21520;BME280;10921;53.614;9.882;2023-05-20T00:32:44;102540.69;;;11.23;56.71
21520;BME280;10921;53.614;9.882;2023-05-20T00:35:10;102542.50;;;11.23;56.79
21520;BME280;10921;53.614;9.882;2023-05-20T00:37:37;102538.13;;;11.22;56.66
21520;BME280;10921;53.614;9.882;2023-05-20T00:40:04;102533.31;;;11.14;56.46
21520;BME280;10921;53.614;9.882;2023-05-20T00:42:31;102536.19;;;11.24;56.43
21520;BME280;10921;53.614;9.882;2023-05-20T00:44:57;102519.97;;;11.14;56.35
21520;BME280;10921;53.614;9.882;2023-05-20T00:47:32;102523.59;;;11.26;56.77
21520;BME280;10921;53.614;9.882;2023-05-20T00:50:00;102540.50;;;11.26;56.61
21520;BME280;10921;53.614;9.882;2023-05-20T00:52:28;102540.50;;;11.26;56.44
21520;BME280;10921;53.614;9.882;2023-05-20T00:54:57;102537.63;;;11.30;56.73
21520;BME280;10921;53.614;9.882;2023-05-20T00:57:24;102531.50;;;11.27;56.35
21520;BME280;10921;53.614;9.882;2023-05-20T00:59:51;102525.94;;;11.31;56.58
21520;BME280;10921;53.614;9.882;2023-05-20T01:02:18;102506.47;;;11.16;56.51
21520;BME280;10921;53.614;9.882;2023-05-20T01:04:45;102484.00;;;11.06;56.86
21520;BME280;10921;53.614;9.882;2023-05-20T01:07:14;102532.88;;;11.33;57.00
21520;BME280;10921;53.614;9.882;2023-05-20T01:09:41;102534.41;;;11.37;57.33
21520;BME280;10921;53.614;9.882;2023-05-20T01:12:15;102534.28;;;11.39;57.33
21520;BME280;10921;53.614;9.882;2023-05-20T01:14:48;102528.00;;;11.40;57.37
21520;BME280;10921;53.614;9.882;2023-05-20T01:17:18;102518.66;;;11.33;57.44
21520;BME280;10921;53.614;9.882;2023-05-20T01:19:46;102527.25;;;11.50;55.74
21520;BME280;10921;53.614;9.882;2023-05-20T01:22:14;102481.78;;;11.12;57.84
21520;BME280;10921;53.614;9.882;2023-05-20T01:24:45;102525.22;;;11.41;57.96
21520;BME280;10921;53.614;9.882;2023-05-20T01:27:14;102499.00;;;11.21;58.35
21520;BME280;10921;53.614;9.882;2023-05-20T01:29:41;102528.75;;;11.42;58.51
21520;BME280;10921;53.614;9.882;2023-05-20T01:32:11;102519.75;;;11.43;58.79
21520;BME280;10921;53.614;9.882;2023-05-20T01:34:40;102484.03;;;11.18;58.85
21520;BME280;10921;53.614;9.882;2023-05-20T01:37:07;102474.75;;;11.11;59.37
21520;BME280;10921;53.614;9.882;2023-05-20T01:39:35;102531.41;;;11.42;59.88
21520;BME280;10921;53.614;9.882;2023-05-20T01:42:04;102507.88;;;11.34;60.00
21520;BME280;10921;53.614;9.882;2023-05-20T01:44:32;102500.59;;;11.23;60.19
21520;BME280;10921;53.614;9.882;2023-05-20T01:46:59;102533.22;;;11.41;60.64
21520;BME280;10921;53.614;9.882;2023-05-20T01:49:27;102535.06;;;11.41;61.13
21520;BME280;10921;53.614;9.882;2023-05-20T01:51:54;102527.13;;;11.39;61.68
21520;BME280;10921;53.614;9.882;2023-05-20T01:54:21;102529.91;;;11.38;61.90
21520;BME280;10921;53.614;9.882;2023-05-20T01:56:48;102489.91;;;11.11;62.61
21520;BME280;10921;53.614;9.882;2023-05-20T01:59:15;102504.34;;;11.21;62.67
21520;BME280;10921;53.614;9.882;2023-05-20T02:01:42;102523.81;;;11.36;63.13
21520;BME280;10921;53.614;9.882;2023-05-20T02:04:08;102519.09;;;11.26;63.21
21520;BME280;10921;53.614;9.882;2023-05-20T02:06:35;102528.50;;;11.32;63.40
21520;BME280;10921;53.614;9.882;2023-05-20T02:09:02;102499.44;;;11.15;63.62
21520;BME280;10921;53.614;9.882;2023-05-20T02:11:28;102516.94;;;11.32;63.77
21520;BME280;10921;53.614;9.882;2023-05-20T02:13:55;102514.63;;;11.27;64.08
21520;BME280;10921;53.614;9.882;2023-05-20T02:16:22;102522.31;;;11.32;64.33
21520;BME280;10921;53.614;9.882;2023-05-20T02:18:49;102511.75;;;11.30;64.43
21520;BME280;10921;53.614;9.882;2023-05-20T02:21:18;102517.28;;;11.27;65.28
21520;BME280;10921;53.614;9.882;2023-05-20T02:23:44;102498.44;;;11.16;65.22
21520;BME280;10921;53.614;9.882;2023-05-20T02:26:11;102509.28;;;11.27;65.42
21520;BME280;10921;53.614;9.882;2023-05-20T02:28:38;102483.41;;;11.15;65.43
21520;BME280;10921;53.614;9.882;2023-05-20T02:31:08;102505.97;;;11.36;63.45
21520;BME280;10921;53.614;9.882;2023-05-20T02:33:35;102495.78;;;11.16;65.01
21520;BME280;10921;53.614;9.882;2023-05-20T02:36:01;102493.34;;;11.13;65.86
21520;BME280;10921;53.614;9.882;2023-05-20T02:38:28;102509.78;;;11.19;66.12
21520;BME280;10921;53.614;9.882;2023-05-20T02:41:02;102504.53;;;11.18;66.52
21520;BME280;10921;53.614;9.882;2023-05-20T02:43:31;102518.97;;;11.15;66.78
21520;BME280;10921;53.614;9.882;2023-05-20T02:45:57;102506.59;;;11.14;66.69
21520;BME280;10921;53.614;9.882;2023-05-20T02:48:24;102501.75;;;11.07;66.94
21520;BME280;10921;53.614;9.882;2023-05-20T02:50:51;102478.66;;;10.93;66.74
21520;BME280;10921;53.614;9.882;2023-05-20T02:53:18;102493.66;;;11.08;67.08
21520;BME280;10921;53.614;9.882;2023-05-20T02:55:45;102501.09;;;11.03;67.42
21520;BME280;10921;53.614;9.882;2023-05-20T02:58:15;102501.97;;;11.04;67.77
21520;BME280;10921;53.614;9.882;2023-05-20T03:00:43;102494.38;;;10.98;68.03
21520;BME280;10921;53.614;9.882;2023-05-20T03:03:09;102497.16;;;10.96;68.04
21520;BME280;10921;53.614;9.882;2023-05-20T03:05:36;102499.94;;;10.95;68.35
21520;BME280;10921;53.614;9.882;2023-05-20T03:08:08;102511.38;;;10.97;68.86
21520;BME280;10921;53.614;9.882;2023-05-20T03:10:38;102509.75;;;10.94;68.73
21520;BME280;10921;53.614;9.882;2023-05-20T03:13:06;102505.56;;;10.90;68.90
21520;BME280;10921;53.614;9.882;2023-05-20T03:15:34;102515.41;;;10.89;69.20
21520;BME280;10921;53.614;9.882;2023-05-20T03:18:01;102511.22;;;10.85;69.63
21520;BME280;10921;53.614;9.882;2023-05-20T03:20:29;102497.94;;;10.71;69.84
21520;BME280;10921;53.614;9.882;2023-05-20T03:22:56;102515.94;;;10.82;69.94
21520;BME280;10921;53.614;9.882;2023-05-20T03:25:23;102480.06;;;10.59;70.45
21520;BME280;10921;53.614;9.882;2023-05-20T03:27:50;102473.63;;;10.49;71.17
21520;BME280;10921;53.614;9.882;2023-05-20T03:30:17;102508.00;;;10.80;71.58
21520;BME280;10921;53.614;9.882;2023-05-20T03:32:44;102464.25;;;10.56;71.86
21520;BME280;10921;53.614;9.882;2023-05-20T03:35:10;102442.66;;;10.46;71.83
21520;BME280;10921;53.614;9.882;2023-05-20T03:37:37;102495.63;;;10.79;72.23
21520;BME280;10921;53.614;9.882;2023-05-20T03:40:06;102500.00;;;10.80;72.61
21520;BME280;10921;53.614;9.882;2023-05-20T03:42:33;102494.31;;;10.85;72.90
21520;BME280;10921;53.614;9.882;2023-05-20T03:44:59;102462.88;;;10.63;73.28
21520;BME280;10921;53.614;9.882;2023-05-20T03:47:27;102470.38;;;10.71;73.10
21520;BME280;10921;53.614;9.882;2023-05-20T03:49:53;102489.13;;;10.83;73.61
21520;BME280;10921;53.614;9.882;2023-05-20T03:52:20;102484.50;;;10.85;74.16
21520;BME280;10921;53.614;9.882;2023-05-20T03:54:47;102502.91;;;11.03;74.18
21520;BME280;10921;53.614;9.882;2023-05-20T03:57:14;102500.34;;;11.01;74.54
21520;BME280;10921;53.614;9.882;2023-05-20T03:59:41;102499.19;;;11.05;74.81
21520;BME280;10921;53.614;9.882;2023-05-20T04:02:08;102484.97;;;11.05;74.90
21520;BME280;10921;53.614;9.882;2023-05-20T04:04:35;102495.38;;;11.22;74.58
21520;BME280;10921;53.614;9.882;2023-05-20T04:07:01;102502.97;;;11.28;75.11
21520;BME280;10921;53.614;9.882;2023-05-20T04:09:30;102493.25;;;11.27;74.73
21520;BME280;10921;53.614;9.882;2023-05-20T04:11:57;102478.06;;;11.27;74.96
21520;BME280;10921;53.614;9.882;2023-05-20T04:14:24;102482.09;;;11.33;74.94
21520;BME280;10921;53.614;9.882;2023-05-20T04:16:50;102508.75;;;11.60;75.17
21520;BME280;10921;53.614;9.882;2023-05-20T04:19:18;102511.84;;;11.67;75.01
21520;BME280;10921;53.614;9.882;2023-05-20T04:21:45;102499.44;;;11.66;75.08
21520;BME280;10921;53.614;9.882;2023-05-20T04:24:11;102511.75;;;11.81;75.37
21520;BME280;10921;53.614;9.882;2023-05-20T04:26:38;102505.97;;;11.87;75.03
21520;BME280;10921;53.614;9.882;2023-05-20T04:29:05;102509.03;;;11.93;75.00
21520;BME280;10921;53.614;9.882;2023-05-20T04:31:31;102515.16;;;11.95;75.03
21520;BME280;10921;53.614;9.882;2023-05-20T04:33:58;102467.78;;;11.85;74.22
21520;BME280;10921;53.614;9.882;2023-05-20T04:36:24;102513.06;;;12.12;74.61
21520;BME280;10921;53.614;9.882;2023-05-20T04:38:54;102505.47;;;12.18;74.42
21520;BME280;10921;53.614;9.882;2023-05-20T04:41:21;102472.00;;;12.00;74.08
21520;BME280;10921;53.614;9.882;2023-05-20T04:43:48;102459.81;;;11.96;73.97
21520;BME280;10921;53.614;9.882;2023-05-20T04:46:15;102469.41;;;12.11;73.85
21520;BME280;10921;53.614;9.882;2023-05-20T04:48:42;102495.78;;;12.28;73.87
21520;BME280;10921;53.614;9.882;2023-05-20T04:51:13;102501.69;;;12.33;73.88
21520;BME280;10921;53.614;9.882;2023-05-20T04:53:39;102499.84;;;12.34;73.97
21520;BME280;10921;53.614;9.882;2023-05-20T04:56:06;102507.66;;;12.37;73.80
21520;BME280;10921;53.614;9.882;2023-05-20T04:58:33;102504.00;;;12.38;73.86
21520;BME280;10921;53.614;9.882;2023-05-20T05:01:00;102513.63;;;12.41;73.60
21520;BME280;10921;53.614;9.882;2023-05-20T05:03:28;102501.09;;;12.41;73.62
21520;BME280;10921;53.614;9.882;2023-05-20T05:05:55;102499.50;;;12.39;73.75
21520;BME280;10921;53.614;9.882;2023-05-20T05:08:23;102474.59;;;12.25;73.94
21520;BME280;10921;53.614;9.882;2023-05-20T05:10:51;102487.44;;;12.33;74.16
21520;BME280;10921;53.614;9.882;2023-05-20T05:13:18;102504.94;;;12.50;74.31
21520;BME280;10921;53.614;9.882;2023-05-20T05:15:44;102495.81;;;12.52;74.51
21520;BME280;10921;53.614;9.882;2023-05-20T05:18:11;102490.16;;;12.44;74.66
21520;BME280;10921;53.614;9.882;2023-05-20T05:20:38;102507.88;;;12.58;74.75
21520;BME280;10921;53.614;9.882;2023-05-20T05:23:04;102491.19;;;12.54;74.81
21520;BME280;10921;53.614;9.882;2023-05-20T05:25:31;102500.16;;;12.66;74.63
21520;BME280;10921;53.614;9.882;2023-05-20T05:27:58;102489.53;;;12.64;74.62
21520;BME280;10921;53.614;9.882;2023-05-20T05:30:25;102505.66;;;12.76;74.56
21520;BME280;10921;53.614;9.882;2023-05-20T05:32:52;102502.63;;;12.80;74.50
21520;BME280;10921;53.614;9.882;2023-05-20T05:35:19;102491.28;;;12.77;74.47
21520;BME280;10921;53.614;9.882;2023-05-20T05:37:45;102474.47;;;12.75;74.44
21520;BME280;10921;53.614;9.882;2023-05-20T05:40:12;102505.00;;;12.96;74.50
21520;BME280;10921;53.614;9.882;2023-05-20T05:42:38;102504.53;;;13.02;74.48
21520;BME280;10921;53.614;9.882;2023-05-20T05:45:06;102511.25;;;13.08;74.48
21520;BME280;10921;53.614;9.882;2023-05-20T05:47:32;102512.50;;;13.15;74.69
21520;BME280;10921;53.614;9.882;2023-05-20T05:49:59;102503.88;;;13.22;74.80
21520;BME280;10921;53.614;9.882;2023-05-20T05:52:26;102504.88;;;13.32;74.35
21520;BME280;10921;53.614;9.882;2023-05-20T05:54:53;102502.09;;;13.45;74.04
21520;BME280;10921;53.614;9.882;2023-05-20T05:57:19;102511.63;;;13.60;73.83
21520;BME280;10921;53.614;9.882;2023-05-20T05:59:46;102501.50;;;13.75;73.65
21520;BME280;10921;53.614;9.882;2023-05-20T06:02:13;102503.97;;;13.89;72.80
21520;BME280;10921;53.614;9.882;2023-05-20T06:04:40;102502.72;;;14.04;72.08
21520;BME280;10921;53.614;9.882;2023-05-20T06:07:07;102510.41;;;14.20;71.37
21520;BME280;10921;53.614;9.882;2023-05-20T06:09:33;102505.13;;;14.30;71.10
21520;BME280;10921;53.614;9.882;2023-05-20T06:12:00;102504.34;;;14.39;70.60
21520;BME280;10921;53.614;9.882;2023-05-20T06:14:27;102445.97;;;14.20;69.96
21520;BME280;10921;53.614;9.882;2023-05-20T06:16:54;102510.44;;;14.63;69.79
21520;BME280;10921;53.614;9.882;2023-05-20T06:19:21;102490.38;;;14.67;69.14
21520;BME280;10921;53.614;9.882;2023-05-20T06:21:47;102471.56;;;14.67;68.72
21520;BME280;10921;53.614;9.882;2023-05-20T06:24:14;102507.63;;;14.97;68.31
21520;BME280;10921;53.614;9.882;2023-05-20T06:26:41;102501.31;;;15.07;67.77
21520;BME280;10921;53.614;9.882;2023-05-20T06:29:07;102494.88;;;15.20;67.43
21520;BME280;10921;53.614;9.882;2023-05-20T06:31:34;102495.53;;;15.33;67.32
21520;BME280;10921;53.614;9.882;2023-05-20T06:34:01;102464.78;;;15.26;66.88
21520;BME280;10921;53.614;9.882;2023-05-20T06:36:27;102490.41;;;15.51;66.32
21520;BME280;10921;53.614;9.882;2023-05-20T06:38:55;102495.00;;;15.60;66.09
21520;BME280;10921;53.614;9.882;2023-05-20T06:41:22;102498.88;;;15.67;65.49
21520;BME280;10921;53.614;9.882;2023-05-20T06:43:48;102484.03;;;15.72;64.99
21520;BME280;10921;53.614;9.882;2023-05-20T06:46:18;102482.22;;;15.82;65.33
21520;BME280;10921;53.614;9.882;2023-05-20T06:48:44;102475.56;;;15.87;65.03
21520;BME280;10921;53.614;9.882;2023-05-20T06:51:11;102426.06;;;15.68;64.79
21520;BME280;10921;53.614;9.882;2023-05-20T06:53:37;102476.47;;;16.06;63.93
21520;BME280;10921;53.614;9.882;2023-05-20T06:56:04;102470.13;;;16.17;63.79
21520;BME280;10921;53.614;9.882;2023-05-20T06:58:31;102466.59;;;16.16;63.27
21520;BME280;10921;53.614;9.882;2023-05-20T07:00:58;102475.84;;;16.33;62.25
21520;BME280;10921;53.614;9.882;2023-05-20T07:03:24;102467.19;;;16.39;63.26
21520;BME280;10921;53.614;9.882;2023-05-20T07:05:51;102461.38;;;16.44;62.45
21520;BME280;10921;53.614;9.882;2023-05-20T07:08:18;102448.47;;;16.57;61.21
21520;BME280;10921;53.614;9.882;2023-05-20T07:10:44;102456.31;;;16.70;61.04
21520;BME280;10921;53.614;9.882;2023-05-20T07:13:12;102456.00;;;16.82;61.34
21520;BME280;10921;53.614;9.882;2023-05-20T07:15:38;102460.66;;;17.00;60.17
21520;BME280;10921;53.614;9.882;2023-05-20T07:18:05;102455.38;;;17.17;59.56
21520;BME280;10921;53.614;9.882;2023-05-20T07:20:31;102452.22;;;17.32;59.81
21520;BME280;10921;53.614;9.882;2023-05-20T07:22:58;102407.53;;;17.19;58.90
21520;BME280;10921;53.614;9.882;2023-05-20T07:25:26;102450.97;;;17.63;58.08
21520;BME280;10921;53.614;9.882;2023-05-20T07:27:52;102453.78;;;17.81;58.70
21520;BME280;10921;53.614;9.882;2023-05-20T07:30:19;102452.84;;;17.90;57.93
21520;BME280;10921;53.614;9.882;2023-05-20T07:32:46;102458.75;;;18.03;56.77
21520;BME280;10921;53.614;9.882;2023-05-20T07:35:12;102454.38;;;18.20;57.23
21520;BME280;10921;53.614;9.882;2023-05-20T07:37:39;102458.91;;;18.29;56.25
21520;BME280;10921;53.614;9.882;2023-05-20T07:40:06;102466.47;;;18.43;57.46
21520;BME280;10921;53.614;9.882;2023-05-20T07:42:33;102460.13;;;18.52;55.45
21520;BME280;10921;53.614;9.882;2023-05-20T07:45:00;102449.44;;;18.60;54.47
21520;BME280;10921;53.614;9.882;2023-05-20T07:47:27;102456.75;;;18.68;55.45
21520;BME280;10921;53.614;9.882;2023-05-20T07:49:54;102449.19;;;18.72;54.24
21520;BME280;10921;53.614;9.882;2023-05-20T07:52:20;102432.13;;;18.71;54.21
21520;BME280;10921;53.614;9.882;2023-05-20T07:54:47;102444.53;;;18.82;53.67
21520;BME280;10921;53.614;9.882;2023-05-20T07:57:14;102427.44;;;18.81;53.19
21520;BME280;10921;53.614;9.882;2023-05-20T07:59:40;102448.00;;;18.92;53.34
21520;BME280;10921;53.614;9.882;2023-05-20T08:02:07;102452.22;;;18.94;52.24
21520;BME280;10921;53.614;9.882;2023-05-20T08:04:34;102453.78;;;18.97;52.65
21520;BME280;10921;53.614;9.882;2023-05-20T08:07:01;102436.81;;;18.87;52.43
21520;BME280;10921;53.614;9.882;2023-05-20T08:09:30;102460.72;;;19.00;51.91
21520;BME280;10921;53.614;9.882;2023-05-20T08:11:57;102460.28;;;19.04;52.02
21520;BME280;10921;53.614;9.882;2023-05-20T08:14:23;102457.94;;;19.09;53.08
21520;BME280;10921;53.614;9.882;2023-05-20T08:16:50;102422.13;;;18.89;51.91
21520;BME280;10921;53.614;9.882;2023-05-20T08:19:20;102436.78;;;19.05;52.53
21520;BME280;10921;53.614;9.882;2023-05-20T08:21:46;102438.75;;;19.20;51.07
21520;BME280;10921;53.614;9.882;2023-05-20T08:24:13;102455.66;;;19.22;51.43
21520;BME280;10921;53.614;9.882;2023-05-20T08:26:40;102447.41;;;19.24;51.53
21520;BME280;10921;53.614;9.882;2023-05-20T08:29:06;102436.38;;;19.25;51.12
21520;BME280;10921;53.614;9.882;2023-05-20T08:31:33;102417.41;;;19.17;51.87
21520;BME280;10921;53.614;9.882;2023-05-20T08:34:00;102441.22;;;19.40;51.20
21520;BME280;10921;53.614;9.882;2023-05-20T08:36:26;102434.31;;;19.45;50.41
21520;BME280;10921;53.614;9.882;2023-05-20T08:38:53;102432.88;;;19.59;50.64
21520;BME280;10921;53.614;9.882;2023-05-20T08:41:21;102427.34;;;19.69;49.08
21520;BME280;10921;53.614;9.882;2023-05-20T08:43:48;102433.34;;;19.88;49.90
21520;BME280;10921;53.614;9.882;2023-05-20T08:46:17;102427.66;;;20.08;49.42
21520;BME280;10921;53.614;9.882;2023-05-20T08:48:44;102422.78;;;20.27;49.18
21520;BME280;10921;53.614;9.882;2023-05-20T08:51:10;102425.53;;;20.52;48.67
21520;BME280;10921;53.614;9.882;2023-05-20T08:53:37;102420.97;;;20.68;47.59
21520;BME280;10921;53.614;9.882;2023-05-20T08:56:04;102363.50;;;20.57;46.19
21520;BME280;10921;53.614;9.882;2023-05-20T08:58:31;102420.97;;;20.93;46.60
21520;BME280;10921;53.614;9.882;2023-05-20T09:01:01;102408.06;;;20.95;44.28
21520;BME280;10921;53.614;9.882;2023-05-20T09:03:27;102421.47;;;21.04;44.23
21520;BME280;10921;53.614;9.882;2023-05-20T09:06:02;102430.94;;;21.08;44.92
21520;BME280;10921;53.614;9.882;2023-05-20T09:08:29;102416.00;;;21.13;44.80
21520;BME280;10921;53.614;9.882;2023-05-20T09:10:56;102415.88;;;21.22;44.16
21520;BME280;10921;53.614;9.882;2023-05-20T09:13:23;102401.63;;;21.20;43.83
21520;BME280;10921;53.614;9.882;2023-05-20T09:15:50;102401.44;;;21.22;43.05
21520;BME280;10921;53.614;9.882;2023-05-20T09:18:17;102410.38;;;21.38;43.61
21520;BME280;10921;53.614;9.882;2023-05-20T09:20:46;102402.19;;;21.47;44.10
21520;BME280;10921;53.614;9.882;2023-05-20T09:23:13;102402.81;;;21.57;43.41
21520;BME280;10921;53.614;9.882;2023-05-20T09:25:40;102396.28;;;21.74;42.80
21520;BME280;10921;53.614;9.882;2023-05-20T09:28:07;102402.84;;;21.88;42.69
21520;BME280;10921;53.614;9.882;2023-05-20T09:30:34;102397.84;;;22.07;42.05
21520;BME280;10921;53.614;9.882;2023-05-20T09:33:03;102357.91;;;22.08;42.06
21520;BME280;10921;53.614;9.882;2023-05-20T09:38:00;102376.56;;;22.79;40.45
21520;BME280;10921;53.614;9.882;2023-05-20T09:40:30;102394.34;;;23.20;40.61
21520;BME280;10921;53.614;9.882;2023-05-20T09:43:04;102393.03;;;23.45;39.77
21520;BME280;10921;53.614;9.882;2023-05-20T09:45:32;102380.44;;;23.59;37.88
21520;BME280;10921;53.614;9.882;2023-05-20T09:48:00;102389.06;;;23.77;38.27
21520;BME280;10921;53.614;9.882;2023-05-20T09:50:28;102345.13;;;23.65;37.62
21520;BME280;10921;53.614;9.882;2023-05-20T09:52:56;102385.66;;;23.90;36.99
21520;BME280;10921;53.614;9.882;2023-05-20T09:55:27;102349.53;;;23.66;37.15
21520;BME280;10921;53.614;9.882;2023-05-20T09:57:55;102352.88;;;23.68;36.95
21520;BME280;10921;53.614;9.882;2023-05-20T10:00:21;102391.13;;;23.75;37.35
21520;BME280;10921;53.614;9.882;2023-05-20T10:02:51;102373.97;;;23.60;37.84
21520;BME280;10921;53.614;9.882;2023-05-20T10:05:21;102385.16;;;23.50;37.19
21520;BME280;10921;53.614;9.882;2023-05-20T10:13:20;102381.28;;;23.15;38.13
21520;BME280;10921;53.614;9.882;2023-05-20T10:16:25;102377.72;;;23.00;38.47
21520;BME280;10921;53.614;9.882;2023-05-20T10:19:17;102381.50;;;22.76;39.50
21520;BME280;10921;53.614;9.882;2023-05-20T10:22:04;102378.19;;;22.66;39.21
21520;BME280;10921;53.614;9.882;2023-05-20T10:24:38;102364.44;;;22.44;38.99
21520;BME280;10921;53.614;9.882;2023-05-20T10:27:08;102364.09;;;22.25;39.51
21520;BME280;10921;53.614;9.882;2023-05-20T10:29:42;102360.09;;;22.13;39.97
21520;BME280;10921;53.614;9.882;2023-05-20T10:32:08;102370.03;;;21.97;41.11
21520;BME280;10921;53.614;9.882;2023-05-20T10:34:46;102337.69;;;21.80;40.86
21520;BME280;10921;53.614;9.882;2023-05-20T10:37:24;102347.53;;;21.81;41.92
21520;BME280;10921;53.614;9.882;2023-05-20T10:40:02;102340.91;;;21.83;41.67
21520;BME280;10921;53.614;9.882;2023-05-20T10:42:28;102351.78;;;21.83;40.84
21520;BME280;10921;53.614;9.882;2023-05-20T10:44:58;102345.91;;;21.94;40.90
21520;BME280;10921;53.614;9.882;2023-05-20T10:47:24;102341.28;;;22.03;41.88
21520;BME280;10921;53.614;9.882;2023-05-20T10:49:52;102334.19;;;22.25;40.31
21520;BME280;10921;53.614;9.882;2023-05-20T10:52:19;102317.09;;;22.31;41.23
21520;BME280;10921;53.614;9.882;2023-05-20T10:54:53;102342.72;;;22.59;41.44
21520;BME280;10921;53.614;9.882;2023-05-20T10:57:21;102334.94;;;22.71;40.42
21520;BME280;10921;53.614;9.882;2023-05-20T10:59:48;102331.31;;;22.78;40.25
21520;BME280;10921;53.614;9.882;2023-05-20T11:02:15;102341.66;;;22.83;40.17
21520;BME280;10921;53.614;9.882;2023-05-20T11:04:43;102336.56;;;22.80;41.76
21520;BME280;10921;53.614;9.882;2023-05-20T11:07:10;102331.38;;;22.70;41.53
21520;BME280;10921;53.614;9.882;2023-05-20T11:09:37;102321.97;;;22.58;41.90
21520;BME280;10921;53.614;9.882;2023-05-20T11:12:04;102296.63;;;22.43;41.58
21520;BME280;10921;53.614;9.882;2023-05-20T11:14:30;102319.31;;;22.50;42.34
21520;BME280;10921;53.614;9.882;2023-05-20T11:16:58;102324.84;;;22.42;42.11
21520;BME280;10921;53.614;9.882;2023-05-20T11:19:25;102329.88;;;22.30;42.44
21520;BME280;10921;53.614;9.882;2023-05-20T11:21:52;102330.78;;;22.23;42.63
21520;BME280;10921;53.614;9.882;2023-05-20T11:24:26;102332.00;;;22.20;43.15
21520;BME280;10921;53.614;9.882;2023-05-20T11:26:54;102332.34;;;22.17;43.56
21520;BME280;10921;53.614;9.882;2023-05-20T11:29:21;102326.84;;;22.02;42.44
21520;BME280;10921;53.614;9.882;2023-05-20T11:31:48;102314.97;;;22.03;42.72
21520;BME280;10921;53.614;9.882;2023-05-20T11:34:20;102303.81;;;21.90;42.60
21520;BME280;10921;53.614;9.882;2023-05-20T11:36:58;102306.72;;;21.89;42.78
21520;BME280;10921;53.614;9.882;2023-05-20T11:39:28;102307.28;;;21.84;42.58
21520;BME280;10921;53.614;9.882;2023-05-20T11:41:56;102299.75;;;21.63;42.42
21520;BME280;10921;53.614;9.882;2023-05-20T11:44:23;102296.38;;;21.61;42.90
21520;BME280;10921;53.614;9.882;2023-05-20T11:46:50;102301.44;;;21.64;42.88
21520;BME280;10921;53.614;9.882;2023-05-20T11:49:16;102295.88;;;21.58;42.88
21520;BME280;10921;53.614;9.882;2023-05-20T11:51:43;102301.28;;;21.66;43.44
21520;BME280;10921;53.614;9.882;2023-05-20T11:54:10;102301.28;;;21.66;42.63
21520;BME280;10921;53.614;9.882;2023-05-20T11:56:38;102303.81;;;21.67;43.15
21520;BME280;10921;53.614;9.882;2023-05-20T11:59:08;102304.09;;;21.72;43.22
21520;BME280;10921;53.614;9.882;2023-05-20T12:01:37;102297.03;;;21.63;42.75
21520;BME280;10921;53.614;9.882;2023-05-20T12:04:06;102298.56;;;21.66;42.41
21520;BME280;10921;53.614;9.882;2023-05-20T12:06:34;102299.25;;;21.60;42.97
21520;BME280;10921;53.614;9.882;2023-05-20T12:09:03;102303.66;;;21.61;43.66
21520;BME280;10921;53.614;9.882;2023-05-20T12:11:38;102310.84;;;21.54;44.73
21520;BME280;10921;53.614;9.882;2023-05-20T12:14:07;102284.16;;;21.26;45.35
21520;BME280;10921;53.614;9.882;2023-05-20T12:16:34;102303.53;;;21.23;45.92
21520;BME280;10921;53.614;9.882;2023-05-20T12:19:02;102306.75;;;21.11;46.47
21520;BME280;10921;53.614;9.882;2023-05-20T12:21:29;102306.97;;;21.01;46.93
21520;BME280;10921;53.614;9.882;2023-05-20T12:23:58;102267.22;;;20.69;47.53
21520;BME280;10921;53.614;9.882;2023-05-20T12:26:26;102298.91;;;20.77;47.02
21520;BME280;10921;53.614;9.882;2023-05-20T12:28:53;102297.56;;;20.73;47.55
21520;BME280;10921;53.614;9.882;2023-05-20T12:31:20;102302.63;;;20.67;48.08
21520;BME280;10921;53.614;9.882;2023-05-20T12:33:47;102290.81;;;20.60;48.77
21520;BME280;10921;53.614;9.882;2023-05-20T12:36:14;102272.31;;;20.56;48.29
21520;BME280;10921;53.614;9.882;2023-05-20T12:38:40;102290.78;;;20.68;48.05
21520;BME280;10921;53.614;9.882;2023-05-20T12:41:07;102290.78;;;20.68;48.52
21520;BME280;10921;53.614;9.882;2023-05-20T12:43:34;102268.44;;;20.58;47.50
21520;BME280;10921;53.614;9.882;2023-05-20T12:46:02;102278.72;;;20.71;47.57
21520;BME280;10921;53.614;9.882;2023-05-20T12:48:29;102266.34;;;20.68;48.61
21520;BME280;10921;53.614;9.882;2023-05-20T12:50:56;102278.06;;;20.69;48.43
21520;BME280;10921;53.614;9.882;2023-05-20T12:53:22;102280.25;;;20.65;48.73
21520;BME280;10921;53.614;9.882;2023-05-20T12:55:49;102287.91;;;20.62;47.49
21520;BME280;10921;53.614;9.882;2023-05-20T12:58:16;102279.94;;;20.60;48.58
21520;BME280;10921;53.614;9.882;2023-05-20T13:00:42;102271.47;;;20.55;47.90